Gap- Col Bayard (05) - C

Date : 27/08/2014
Distance : 8,119 km

Place Nom Licence Catégorie Club Temps min/km CN à J-60 Points Différence Nouveau CN
1 MARTINEZ Pierre 14394 H18 4012AQ 0:50:23 6'12 6933 8602 +1669 7295
2 PUECH Matthieu 1176 H35 8311AZ 0:51:05 6'17 7488 8484 +996 7827
3 COCHEY Benoit 3210 H35 3810RA 0:54:34 6'43 7213 7942 +729 7473
4 ROUX Fleury 25237 H18 4201RA 0:55:51 6'52 6827 7760 +933 7131
5 DUFOUR Raphael 10117 H35 2606RA 0:59:06 7'16 6484 7333 +849 6689
6 MATHIS Martin 20315 H18 5407LO 0:59:38 7'20 6996 7267 +271 7098
7 RINGOT Paul 12358 H18 6911RA 1:00:27 7'26 6681 7169 +488 6751
8 D'HARREVILLE Karine 4837 D21 8809LO 1:00:29 7'26 7201 7165 -36 7216
9 MONNIER Eric 23433 H35 2610RA 1:01:03 7'31 6353 7099 +746 6815
10 PLAGNOL Francois 22839 H35 2605RA 1:01:06 7'31 6794 7093 +299 6937
11 HALTZ Louis 24070 H18 5907NO 1:01:13 7'32 6881 7079 +198 6976
12 CANAUD Christophe 14192 H35 6315AU 1:01:36 7'35 5866 7035 +1169 6269
13 DELENNE William 11904 H18 1307PR 1:03:09 7'46 6794 6863 +69 6744
14 PERRIN Eric 205 H40 4201RA 1:03:47 7'51 8374 6795 -1579 8372
15 POIROT Delphine 15979 D20 8809LO 1:04:01 7'53 6609 6770 +161 6746
16 RADONDY Théo 22370 H18 5907NO 1:04:25 7'56 6952 6728 -224 6980
17 OBSTETAR Perrine 12773 D21 3913FC 1:04:47 7'58 6681 6690 +9 6721
18 DUDOIGNON Ludovic 17951 H40 2604RA 1:05:16 8'02 6451 6640 +189 6569
19 LANNEZVAL Yann 7630 H40 2517FC 1:05:25 8'03 4603 6625 +2022 5986
20 QUINQUENEL Herve 15176 H35 9404IF 1:05:35 8'04 6059 6608 +549 6243
21 MADEC-GUILLOT Théo 20127 H20 2105BO 1:05:36 8'04 6804 6606 -198 6708
22 BRASSART Eric 12117 H40 1403NM 1:05:45 8'05 6532 6591 +59 6527
23 BOUCHAN Jérôme 26489 H18 9006FC 1:05:48 8'06 6217 6586 +369 6529
24 PANNIER Pascal 12114 H40 7807IF 1:05:51 8'06 6433 6581 +148 6462
25 BESTEL Thierry 9601 H40 9105IF 1:06:01 8'07 6603 6565 -38 6602
26 HAREL Sébastien 25371 H40 2904BR 1:06:02 8'07 5884 6563 +679 6143
27 KOTECKY Ondrej 462 H35 5906NO 1:06:15 8'09 6331 6542 +211 6481
28 OTSAMO Pihla 25029 D20 5907NO 1:06:43 8'13 6496 6228
29 CHARBONNIER Olivier 23306 H35 4203RA 1:07:19 8'17 6387 6438 +51 6413
30 POULAIN Antoine 13237 H35 6804AL 1:07:48 8'21 6459 6392 -67 6556
31 LEMAIRE Yann-Pierrick 19094 H40 7807IF 1:07:49 8'21 6261 6390 +129 6379
32 DUPUY Francis 15708 H35 8105MP 1:08:13 8'24 7317 6353 -964 7392
33 ESTELA Olivier 4033 H40 1307PR 1:09:05 8'30 6473 6273 -200 6368
34 MAYORAZ Loïc 25037 H18 7407RA 1:09:05 8'30 5594 6273 +679 5790
35 LEPOUTRE Mélanie 4836 D21 8809LO 1:09:10 8'31 6351 6266 -85 6411
36 ERBLAND Thibault 20664 H18 9105IF 1:10:22 8'40 7127 6159 -968 6911
37 DALIBARD Nicolas 19024 H35 6804AL 1:10:53 8'43 6113 6114 +1 6123
38 MERIGUET Thomas 14684 H18 7807IF 1:11:19 8'47 5846 6077 +231 6014
39 GOUTAUDIER Christophe 15329 H40 5402LO 1:11:30 8'48 6364 6061 -303 6408
40 ANDRIEUX Xavier 10492 H40 7305RA 1:11:32 8'48 5717 6058 +341 6046
41 POULAIN Yannick 9171 H20 5909NO 1:12:06 8'52 6000 6011 +11 6088
42 HARNIST Mathieu 25417 H35 6803AL 1:12:38 8'56 6127 5967 -160 6155
43 NORE Vincent 10268 H40 2109BO 1:14:01 9'06 5855 5504
44 SANT Guilhem 6433 H35 8105MP 1:14:16 9'08 6380 5835 -545 6336
45 RAMBLIERE Théo 19856 H18 4601MP 1:14:25 9'09 6469 5824 -645 5978
46 CHABANCE Thomas 18120 H18 4201RA 1:14:39 9'11 6289 5805 -484 6199
47 REDELSPERGER Jeremy 25335 H18 6804AL 1:14:39 9'11 5244 5805 +561 5454
48 VUILLEMARD Jérémy 21183 H35 8812LO 1:14:42 9'12 6167 5802 -365 6115
49 VUITTON Gaetan 18841 H18 6911RA 1:14:50 9'13 6275 5791 -484 5804
50 DAEM Adriaan 19344 H35 7807IF 1:14:53 9'13 5995 5787 -208 6055
51 DIDYME Christophe 10379 H35 8105MP 1:14:55 9'13 5485 5785 +300 5606
52 BACKSCHEIDER Emilie 15847 D21 6911RA 1:15:09 9'15 6750 5767 -983 6820
53 GIRARD Lucille 19689 D20 3705CE 1:15:59 9'21 5902 5704 -198 5964
54 PECOURT Sebastien 10155 H35 2904BR 1:16:35 9'25 6153 5659 -494 6144
55 MOREL Franck 8181 H40 5907NO 1:16:50 9'27 6116 5641 -475 6264
56 SOGNO Martin 14950 H18 1307PR 1:16:50 9'27 5803 5641 -162 5821
57 REZE Baptiste 28347 H20 1403NM 1:17:01 9'29 4777 5627 +850 5066
58 HANAUER Sébastien 19413 H18 6806AL 1:17:50 9'35 6310 5568 -742 6392
59 LEGRAND Timothée 24892 H18 7707IF 1:18:06 9'37 5808 5549 -259 5895
60 FRAYSSINET Laurent 12406 H35 8104MP 1:18:15 9'38 6096 5538 -558 6281
61 DELCUSE Sébastien 22373 H20 6205NO 1:18:30 9'40 5822 5521 -301 5840
62 CHEVREUX Emmanuel 14777 H40 7109BO 1:18:53 9'42 6131 5494 -637 6209
63 LAVILLE Julien 16547 H18 1307PR 1:20:14 9'52 6451 5401 -1050 6549
64 GRANGER Emmanuel 3811 H40 4201RA 1:20:56 9'58 6043 5355 -688 5827
65 MENA Sebastien 10776 H35 3105MP 1:21:25 10'01 5557 5323 -234 5624
66 MAZAN Christophe 23775 H35 8104MP 1:21:34 10'02 5179 5313 +134 5223
67 SOUWEINE Gérald 22963 H40 5907NO 1:21:56 10'05 5289 5077
68 ROLLER Antoine 24045 H18 8404PR 1:22:18 10'08 4189 5266 +1077 4645
69 HUEBER Diane 5639 D21 6806AL 1:23:46 10'19 5350 5174 -176 5385
70 RUDKIEWICZ Martin 18542 H20 2508FC 1:24:04 10'21 5537 5155 -382 5533
71 GRIMAULT Freddy 13393 H35 8607PC 1:24:51 10'27 5764 5108 -656 5829
72 CLOUET Alain 26561 H40 8203MP 1:24:54 10'27 5199 5105 -94 5212
73 DANEL Jerome 16280 H40 5906NO 1:25:17 10'30 6679 5082 -1597 6648
74 LELOUP Anouk 8108 D20 7305RA 1:25:31 10'31 4244 5068 +824 4685
75 LAMOR Frédéric 23243 H40 1705PC 1:25:37 10'32 5575 5062 -513 5288
76 BOURGEOIS J-Damien 11225 H40 8105MP 1:25:47 10'33 5118 5052 -66 4601
77 CAVARROC Jerome 13707 H40 1104LR 1:25:57 10'35 4937 5042 +105 4964
78 VUILLEMARD Marie 14238 D21 8812LO 1:25:58 10'35 5409 5041 -368 5496
79 WU Thierry 20784 H40 7808IF 1:26:03 10'35 4201 5036 +835 4503
80 CHASSOT Elodie 8253 D21 4708AQ 1:26:04 10'36 5160 5035 -125 5218
81 GONDCAILLE Laurent 26730 H21 6008PI 1:26:20 10'38 5373 5020 -353 5338
82 BECU Cindy 5139 D21 6008PI 1:27:08 10'43 5307 4974 -333 5240
83 LOPEZ Etienne 19767 H18 4201RA 1:27:38 10'47 5322 4945 -377 4943
84 MONNET Jean-Matthieu 26194 H35 3810RA 1:28:33 10'54 4894 4600
85 CZERNIAK Jérome 13271 H40 6205NO 1:28:37 10'54 5019 4890 -129 5018
86 MONTAGARD Frédéric 12379 H40 7808IF 1:29:54 11'04 5302 4821 -481 5311
87 KORAL Alexis 27625 H18 5907NO 1:29:58 11'04 5471 4817 -654 5408
88 DUDOUT Serge 24515 H40 2704NM 1:30:54 11'11 5025 4768 -257 5149
89 RAVENET Eric 9775 H40 2208BR 1:31:08 11'13 4899 4755 -144 4873
90 ROBIN Vincent 22966 H35 6911RA 1:31:25 11'15 5211 4741 -470 5231
91 HUCTIN Jerome 9692 H40 5609BR 1:31:30 11'16 5652 4736 -916 5570
92 CHAGNON Stéphane 20868 H35 2407AQ 1:31:37 11'17 5120 4730 -390 5249
93 BERTHELOT Stephane 3455 H40 8607PC 1:31:38 11'17 5251 4729 -522 5293
94 ARNAULT Louis Marie 22613 H40 8607PC 1:31:49 11'18 5563 4720 -843 5704
95 ROMIEU Cyril 11709 H40 9404IF 1:32:39 11'24 4971 4678 -293 4884
96 URVOY Martial 23615 H40 6203NO 1:32:49 11'25 5155 4669 -486 5194
97 MANOPOULOS Patrice 24278 H35 1303PR 1:33:24 11'30 5259 4640 -619 5176
98 XIMENEZ Vincent 17708 H18 3810RA 1:33:53 11'33 5623 4616 -1007 5604
99 POULET Vincent 29459 H18 6008PI 1:33:54 11'33 0 4615 4349
100 TRONCHE-MASSO Baptiste 25259 H18 2406AQ 1:34:06 11'35 5283 4606 -677 5350
101 BERRARD Philippe 19760 H40 2607RA 1:34:40 11'39 5151 4578 -573 4321
102 GERBEAUX Nathanaëlle 18312 D21 7807IF 1:35:06 11'42 5552 4557 -995 4572
103 DABIN Stephane 15691 H40 0615AZ 1:35:45 11'47 5168 4526 -642 5168
104 RIVOLLIER Isaline 22451 D20 4201RA 1:35:47 11'47 4565 4525 -40 4513
105 DESREUMAUX Victor 15170 H20 6008PI 1:35:54 11'48 5083 4519 -564 4607
106 SELLIER Jean-Marc 8508 H40 7722IF 1:38:04 12'04 4803 4419 -384 4933
107 FAUQUANT Jean-Marie 16184 H40 7807IF 1:38:11 12'05 4599 4414 -185 4599
108 MORAND Jean-Philippe 20466 H40 7807IF 1:38:11 12'05 5258 4414 -844 5246
109 HUMILIERE Sylvain 29737 H18 4601MP 1:39:18 12'13 2596 4364 +1768 3867
110 TASTET Xavier 23572 H35 4012AQ 1:39:20 12'14 6108 4363 -1745 6073
111 JANOD Francois 11700 H40 7305RA 1:40:47 12'24 5330 4300 -1030 4878
112 DREANO Benjamin 22575 H18 7715IF 1:41:33 12'30 6171 4268 -1903 6212
113 MACHEMIN Marie 28270 D21 1905LI 1:41:52 12'32 4529 4254 -275 4518
114 POULAIN Gael 9172 H18 5909NO 1:42:15 12'35 5680 4238 -1442 5528
115 COCTEAU Vanessa 12032 D21 2508FC 1:42:41 12'38 5072 4221 -851 5154
116 CAVALIER Héloïse 22600 D21 7512IF 1:42:47 12'39 5322 4216 -1106 5294
117 WACK Xavier 28067 H18 6804AL 1:45:45 13'01 4936 4098 -838 4936
118 URVOAS Anthony 28381 H35 7807IF 1:45:50 13'02 4641 4095 -546 4641
119 FLECK Frederick 8042 H40 2517FC 1:46:53 13'09 5053 4055 -998 5163
120 LAROSE Eric 25047 H35 3810RA 1:47:39 13'15 4608 4026 -582 4414
121 ROUXEL Mathieu 25618 H35 8405PR 1:47:41 13'15 4319 4025 -294 4177
122 FONTAINE Helise 22962 D20 5907NO 1:48:12 13'19 4870 4005 -865 4905
123 ROCH Stéphane 19558 H40 7722IF 1:50:32 13'36 5067 3921 -1146 5125
124 ZIMMERMANN David 11820 H40 5407LO 1:50:34 13'37 4433 3920 -513 4588
125 ROY Vincent 28034 H18 5906NO 1:52:41 13'52 4013 3846 -167 4018
126 CLAVEL Matéo 22804 H18 5907NO 1:52:52 13'54 5149 3840 -1309 5163
127 MARCHER Wolfgang 13097 H40 1705PC 1:53:13 13'56 5067 3828 -1239 5234
128 PAULY Alexis 18148 H40 1705PC 1:53:40 14'00 6124 3813 -2311 5936
129 DELCUSE Vincent 27703 H40 6205NO 1:57:49 14'30 4801 3678 -1123 4950
130 DUDOUT Benoît 26613 H40 1307PR 1:59:53 14'45 4588 3615 -973 4742
131 VADROT Alexis 25507 H40 1303PR 1:59:59 14'46 4081 3612 -469 4081
132 GOURLAIN Clément 19759 H18 6205NO 2:00:06 14'47 4395 3608 -787 4669
133 GALLOIS Marc 21998 H40 0207PI 2:05:11 15'25 4980 3462 -1518 5012
134 DANJOU Romain 26233 H20 5907NO 2:07:43 15'43 4997 3393 -1604 4250
135 MAIGRE Cyril 26293 H40 4709AQ 2:07:58 15'45 4194 3387 -807 4351
136 POULAIN Nicolas 13950 H35 2704NM 2:08:04 15'46 4777 3384 -1393 4339
137 VORWERK Jan 25744 H40 4201RA 2:12:09 16'16 4184 3279 -905 4184
138 POUPEAU Philippe-Olivier 25545 H35 9404IF 2:13:05 16'23 4128 3256 -872 4235
139 REGNIER Nicolas 27889 H35 3308AQ 2:19:58 17'14 4116 3096 -1020 4362
140 LAVALLEE Patrice 26387 H40 6008PI 2:20:09 17'15 4520 3092 -1428 4530
141 PIVAUDRAN Marc 24923 H40 4601MP 2:27:28 18'09 3487 2939 -548 3487
142 BRIERE Xavier 28990 H35 2704NM 2:33:38 18'55 3896 2821 -1075 3848
143 STEIN Nicolas 13062 H40 5703LO 2:50:57 21'03 4459 2535 -1924 4398
MIDENA Benjamin 198 H21 2606RA abandon None 6148 0 5619
GREBEL Emmanuel 7084 H40 7305RA abandon None 2883 0 2917
GHIBAUDO Nicolas 21358 H35 4203RA abandon None 6930 0 6962
MOURLEAU Nicolas 25426 H18 4709AQ abandon None 4788 0 4833
BASSET Isia 9932 D21 6911RA pm None 6964 0 6965
BEAUVISAGE Lauriane 11307 D20 7807IF pm None 6653 0 6577
MERCIER Agnès 23079 D21 5907NO pm None 5433 0 5438
GRABARSKI Thierry 27444 H35 4709AQ pm None 4239 0 4239
FRASCOLLA Adrien 17012 H18 2105BO pm None 5216 0 5216
LALOUX Clément 22447 H18 5907NO pm None 5493 0 5504
NAPIERALA Nicolas 26424 H18 5907NO pm None 5663 0 5284
GOETTMANN Thomas 18468 H20 6804AL pm None 5452 0 5685
BONNAVEIRA Fabien 23282 H18 6911RA pm None 6781 0 6803
DUCHON Alban 23241 H18 5703LO pm None 5776 0 5776
POSTIEAUX LAURENT 26274 H20 8104MP pm None 6099 0 6141
GREFF Nicolas 25095 H40 0111RA pm None 5375 0 5278
VADROT Adrien 20880 H40 7305RA pm None 3927 0 3927
PAIN Sébastien 27156 H40 3705CE pm None 5542 0 5798
BOUSSER Thomas 12776 H18 5703LO pm None 4799 0 4799
TREMOULET Joel 13825 H40 4601MP pm None 4851 0 4823
BERQUEZ Adrien 29678 H18 5907NO pm None 0 0 4052
GODEFROY Simon 13926 H18 7707IF pm None 4430 0 4405
CORBIN Gil 23492 H40 2604RA pm None 5344 0 5322
TANGUY Gael 4589 H40 3502BR pm None 4659 0 4659
LATIL Sébastien 28693 H35 1303PR pm None 3469 0 3592
BEDELET Olivier 29112 H40 7807IF pm None 3251 0 3478
CAYRAC David 11208 H40 1207MP pm None 4956 0 4956